Time;durP1;ratioP1;P1;durP2;ratioP2;P2;SDS_P1;SDS_P2;PMS_P1;PMS_P2;Temp;Humidity;BMP_temperature;BMP_pressure;BME280_temperature;BME280_humidity;BME280_pressure;Samples;Min_cycle;Max_cycle;Signal;HPM_P1;HPM_P2
2022/06/23 00:01:59;;;;;;;22.40;8.95;;;14.00;99.90;;;;;;4954902;28;20061;-70
2022/06/23 00:04:29;;;;;;;21.60;9.68;;;14.00;99.90;;;;;;4975647;28;20058;-70
2022/06/23 00:06:59;;;;;;;20.35;10.35;;;14.10;99.90;;;;;;4944396;28;20460;-70
2022/06/23 00:09:27;;;;;;;22.25;10.38;;;13.90;99.90;;;;;;4956971;28;20042;-71
2022/06/23 00:11:53;;;;;;;19.42;9.98;;;14.00;99.90;;;;;;4963979;28;20594;-69
2022/06/23 00:14:18;;;;;;;18.80;9.80;;;14.00;99.90;;;;;;4947527;28;20130;-70
2022/06/23 00:16:44;;;;;;;20.10;10.07;;;13.90;99.90;;;;;;4958480;28;20088;-70
2022/06/23 00:19:14;;;;;;;22.20;9.55;;;13.90;99.90;;;;;;4940461;28;20469;-71
2022/06/23 00:21:44;;;;;;;23.13;10.45;;;13.90;99.90;;;;;;4979412;28;20499;-70
2022/06/23 00:24:21;;;;;;;21.30;9.75;;;13.90;99.90;;;;;;4962243;28;20057;-70
2022/06/23 00:26:49;;;;;;;22.30;10.27;;;13.90;99.90;;;;;;4960790;28;20122;-69
2022/06/23 00:29:17;;;;;;;18.95;9.65;;;13.90;99.90;;;;;;4976519;28;20081;-70
2022/06/23 00:31:57;;;;;;;23.25;10.07;;;13.90;99.90;;;;;;4957621;28;20027;-70
2022/06/23 00:34:42;;;;;;;20.80;9.55;;;13.90;99.90;;;;;;4957025;28;20398;-70
2022/06/23 00:37:17;;;;;;;19.27;9.50;;;13.90;99.90;;;;;;4982780;28;20054;-70
2022/06/23 00:39:53;;;;;;;21.95;10.35;;;13.80;99.90;;;;;;4960815;28;20477;-69
2022/06/23 00:42:27;;;;;;;20.08;10.50;;;13.80;99.90;;;;;;4960795;28;20050;-70
2022/06/23 00:45:07;;;;;;;20.45;9.88;;;13.90;99.90;;;;;;4959793;28;20034;-70
2022/06/23 00:47:50;;;;;;;19.85;9.68;;;13.80;99.90;;;;;;4943702;28;20517;-70
2022/06/23 00:50:46;;;;;;;20.52;9.90;;;13.80;99.90;;;;;;4957937;28;20057;-70
2022/06/23 00:53:11;;;;;;;16.60;9.15;;;13.70;99.90;;;;;;4961947;28;20084;-70
2022/06/23 00:55:40;;;;;;;20.95;9.55;;;13.70;99.90;;;;;;4956023;28;20034;-70
2022/06/23 00:58:28;;;;;;;19.48;9.35;;;13.70;99.90;;;;;;4952162;28;20125;-70
2022/06/23 01:01:10;;;;;;;21.15;9.55;;;13.60;99.90;;;;;;4957124;28;20049;-70
2022/06/23 01:04:05;;;;;;;22.42;10.40;;;13.60;99.90;;;;;;4960515;28;20494;-70
2022/06/23 01:06:41;;;;;;;18.58;9.07;;;13.50;99.90;;;;;;4977943;28;20047;-70
2022/06/23 01:09:21;;;;;;;24.80;10.05;;;13.50;99.90;;;;;;4961300;28;20141;-70
2022/06/23 01:11:59;;;;;;;18.15;9.60;;;13.40;99.90;;;;;;4944042;28;20038;-70
2022/06/23 01:14:28;;;;;;;21.45;9.48;;;13.50;99.90;;;;;;4943981;28;20137;-70
2022/06/23 01:17:03;;;;;;;22.23;9.40;;;13.50;99.90;;;;;;4959933;28;20125;-70
2022/06/23 01:20:00;;;;;;;21.00;10.23;;;13.40;99.90;;;;;;4959044;28;20034;-70
2022/06/23 01:22:46;;;;;;;21.95;10.73;;;13.40;99.90;;;;;;4952104;28;20104;-70
2022/06/23 01:25:28;;;;;;;20.92;10.73;;;13.30;99.90;;;;;;4945029;28;20068;-70
2022/06/23 01:28:15;;;;;;;24.00;10.40;;;13.40;99.90;;;;;;4952459;28;20054;-69
2022/06/23 01:30:56;;;;;;;20.90;10.02;;;13.40;99.90;;;;;;4953264;28;20430;-70
2022/06/23 01:33:39;;;;;;;25.38;11.00;;;13.40;99.90;;;;;;4955418;28;20506;-70
2022/06/23 01:36:17;;;;;;;18.35;9.40;;;13.30;99.90;;;;;;4954248;28;20038;-69
2022/06/23 01:38:46;;;;;;;20.20;9.98;;;13.40;99.90;;;;;;4956562;28;20081;-70
2022/06/23 01:41:19;;;;;;;23.00;10.98;;;13.30;99.90;;;;;;4956014;28;20038;-70
2022/06/23 01:44:04;;;;;;;21.23;10.63;;;13.30;99.90;;;;;;4958770;28;20038;-69
2022/06/23 01:46:35;;;;;;;20.90;10.80;;;13.40;99.90;;;;;;4981004;28;20047;-70
2022/06/23 01:49:26;;;;;;;22.30;10.20;;;13.40;99.90;;;;;;4943384;28;20055;-70
2022/06/23 01:51:55;;;;;;;23.25;9.73;;;13.30;99.90;;;;;;4957694;28;20053;-70
2022/06/23 01:54:20;;;;;;;22.73;10.30;;;13.40;99.90;;;;;;4953607;28;20050;-70
2022/06/23 01:56:49;;;;;;;18.95;9.95;;;13.40;99.90;;;;;;4954497;28;20042;-70
2022/06/23 01:59:21;;;;;;;22.45;10.85;;;13.30;99.90;;;;;;4955518;28;20042;-70
2022/06/23 02:01:51;;;;;;;;;;;13.30;99.90;;;;;;4950537;28;20062;-70
2022/06/23 02:04:44;;;;;;;25.05;10.65;;;13.20;99.90;;;;;;4967328;28;20269;-70
2022/06/23 02:07:21;;;;;;;;;;;13.20;99.90;;;;;;4953127;28;20062;-70
2022/06/23 02:10:33;;;;;;;21.30;10.30;;;13.20;99.90;;;;;;4952207;28;19930;-70
2022/06/23 02:13:02;;;;;;;24.75;10.70;;;13.10;99.90;;;;;;4930573;28;20082;-70
2022/06/23 02:15:46;;;;;;;23.48;11.10;;;13.10;99.90;;;;;;4956580;28;20125;-70
2022/06/23 02:18:20;;;;;;;23.77;11.20;;;13.10;99.90;;;;;;4958555;28;20030;-70
2022/06/23 02:20:58;;;;;;;22.27;10.57;;;13.10;99.90;;;;;;4952772;28;20066;-70
2022/06/23 02:23:41;;;;;;;21.33;10.63;;;13.00;99.90;;;;;;4963007;28;20055;-70
2022/06/23 02:26:23;;;;;;;29.38;12.00;;;13.00;99.90;;;;;;4961590;28;20039;-70
2022/06/23 02:29:04;;;;;;;24.58;11.60;;;13.00;99.90;;;;;;4957675;28;20525;-71
2022/06/23 02:31:50;;;;;;;28.65;11.48;;;13.00;99.90;;;;;;4958608;28;20122;-70
2022/06/23 02:34:28;;;;;;;22.25;10.95;;;13.00;99.90;;;;;;4958587;28;20070;-70
2022/06/23 02:36:58;;;;;;;27.30;11.63;;;12.90;99.90;;;;;;4958490;28;20047;-70
2022/06/23 02:39:44;;;;;;;23.73;11.88;;;12.90;99.90;;;;;;4967679;28;20070;-70
2022/06/23 02:42:30;;;;;;;24.80;11.55;;;12.90;99.90;;;;;;4957750;28;20034;-70
2022/06/23 02:45:25;;;;;;;26.23;11.85;;;12.90;99.90;;;;;;4983182;28;20047;-70
2022/06/23 02:48:25;;;;;;;21.42;10.90;;;12.90;99.90;;;;;;4960345;28;20128;-70
2022/06/23 02:51:00;;;;;;;23.23;11.10;;;12.80;99.90;;;;;;4956569;28;20493;-70
2022/06/23 02:53:47;;;;;;;26.27;12.80;;;12.80;99.90;;;;;;4959936;28;20071;-70
2022/06/23 02:56:39;;;;;;;26.52;12.38;;;12.90;99.90;;;;;;4967589;28;20125;-70
2022/06/23 02:59:13;;;;;;;25.17;12.60;;;12.80;99.90;;;;;;4958763;28;20031;-70
2022/06/23 03:01:59;;;;;;;27.35;12.27;;;12.80;99.90;;;;;;4945205;28;20037;-70
2022/06/23 03:04:37;;;;;;;25.80;11.73;;;12.80;99.90;;;;;;4941838;28;20089;-69
2022/06/23 03:07:12;;;;;;;23.35;11.82;;;12.70;99.90;;;;;;4982620;28;20035;-70
2022/06/23 03:09:42;;;;;;;26.08;12.60;;;12.70;99.90;;;;;;4961771;28;20282;-70
2022/06/23 03:12:25;;;;;;;30.83;12.27;;;12.60;99.90;;;;;;4960810;28;20230;-70
2022/06/23 03:15:08;;;;;;;30.90;13.00;;;12.70;99.90;;;;;;4942934;28;20489;-70
2022/06/23 03:17:37;;;;;;;29.42;13.10;;;12.70;99.90;;;;;;4957155;28;20034;-70
2022/06/23 03:20:25;;;;;;;26.02;13.15;;;12.60;99.90;;;;;;4954664;28;20043;-70
2022/06/23 03:22:57;;;;;;;25.95;13.02;;;12.60;99.90;;;;;;4963021;28;20053;-70
2022/06/23 03:25:34;;;;;;;27.15;13.02;;;12.60;99.90;;;;;;4946258;28;20509;-69
2022/06/23 03:28:21;;;;;;;25.42;12.43;;;12.60;99.90;;;;;;4960132;28;20042;-70
2022/06/23 03:30:59;;;;;;;25.35;12.32;;;12.60;99.90;;;;;;4955442;28;20054;-70
2022/06/23 03:33:57;;;;;;;25.90;12.68;;;12.60;99.90;;;;;;4959624;28;20433;-70
2022/06/23 03:36:47;;;;;;;28.65;13.52;;;12.60;99.90;;;;;;4947868;28;20046;-70
2022/06/23 03:42:27;;;;;;;27.33;12.70;;;12.50;99.90;;;;;;4958123;28;20225;-70
2022/06/23 03:44:59;;;;;;;27.30;12.80;;;12.50;99.90;;;;;;4944350;28;20066;-70
2022/06/23 03:47:30;;;;;;;27.08;12.98;;;12.50;99.90;;;;;;4956930;28;20054;-71
2022/06/23 03:49:56;;;;;;;29.35;13.07;;;12.50;99.90;;;;;;4957479;28;20089;-69
2022/06/23 03:52:37;;;;;;;29.23;13.68;;;12.50;99.90;;;;;;4953221;28;20043;-70
2022/06/23 03:55:28;;;;;;;31.42;14.40;;;12.50;99.90;;;;;;4966121;28;20050;-70
2022/06/23 03:58:25;;;;;;;35.03;14.93;;;12.60;99.90;;;;;;4969404;28;20046;-70
2022/06/23 04:01:43;;;;;;;31.02;13.30;;;12.60;99.90;;;;;;4949433;28;20047;-70
2022/06/23 04:04:24;;;;;;;33.47;14.50;;;12.70;99.90;;;;;;4909870;29;20043;-68
2022/06/23 04:06:52;;;;;;;33.95;15.25;;;12.70;99.90;;;;;;4958386;28;20547;-70
2022/06/23 04:09:20;;;;;;;28.70;13.52;;;12.70;99.90;;;;;;4959670;28;20050;-70
2022/06/23 04:12:07;;;;;;;31.75;14.00;;;12.80;99.90;;;;;;4954817;28;20045;-69
2022/06/23 04:14:53;;;;;;;31.75;15.48;;;12.90;99.90;;;;;;4960745;28;20081;-70
2022/06/23 04:17:27;;;;;;;27.95;14.18;;;12.90;99.90;;;;;;4981917;28;20056;-70
2022/06/23 04:20:09;;;;;;;31.13;14.90;;;12.90;99.90;;;;;;4950770;28;20042;-70
2022/06/23 04:22:40;;;;;;;28.50;13.77;;;13.10;99.90;;;;;;4958629;28;20498;-70
2022/06/23 04:25:11;;;;;;;31.75;14.73;;;13.10;99.90;;;;;;4945408;28;20078;-70
2022/06/23 04:27:50;;;;;;;33.38;13.65;;;13.20;99.90;;;;;;4959119;28;20081;-70
2022/06/23 04:30:27;;;;;;;27.10;13.48;;;13.30;99.90;;;;;;4956767;28;20519;-70
2022/06/23 04:32:56;;;;;;;28.30;13.52;;;13.30;99.90;;;;;;4972232;28;20058;-70
2022/06/23 04:35:36;;;;;;;30.17;14.52;;;13.40;99.90;;;;;;4947352;28;20069;-71
2022/06/23 04:38:10;;;;;;;27.40;13.30;;;13.50;99.90;;;;;;4960429;28;20113;-71
2022/06/23 04:40:53;;;;;;;26.05;13.52;;;13.70;99.90;;;;;;4960156;28;20078;-70
2022/06/23 04:43:35;;;;;;;31.45;13.15;;;13.70;99.90;;;;;;4982632;28;20081;-70
2022/06/23 04:46:06;;;;;;;30.27;14.40;;;13.90;99.90;;;;;;4966507;28;20039;-71
2022/06/23 04:48:38;;;;;;;30.48;13.50;;;14.00;99.90;;;;;;4939989;28;20050;-69
2022/06/23 04:51:25;;;;;;;31.40;14.37;;;14.00;99.90;;;;;;4955628;28;20038;-70
2022/06/23 04:54:00;;;;;;;27.58;14.52;;;14.10;99.90;;;;;;4961601;28;20524;-71
2022/06/23 04:56:51;;;;;;;28.60;13.35;;;14.20;99.90;;;;;;4955658;28;20120;-71
2022/06/23 04:59:40;;;;;;;26.75;13.70;;;14.30;99.90;;;;;;4962849;28;20066;-71
2022/06/23 05:02:15;;;;;;;26.67;13.52;;;14.50;99.90;;;;;;4954172;28;20730;-69
2022/06/23 05:04:44;;;;;;;29.55;13.70;;;14.50;99.90;;;;;;4958835;28;20112;-70
2022/06/23 05:07:24;;;;;;;26.98;13.85;;;14.70;99.90;;;;;;4958796;28;20125;-70
2022/06/23 05:09:55;;;;;;;31.48;14.70;;;14.80;99.90;;;;;;4955438;28;20085;-72
2022/06/23 05:12:49;;;;;;;28.13;13.52;;;14.90;99.90;;;;;;4958803;28;20537;-70
2022/06/23 05:15:24;;;;;;;26.00;13.90;;;15.00;99.90;;;;;;4955307;28;20051;-70
2022/06/23 05:18:05;;;;;;;27.98;14.68;;;15.10;99.90;;;;;;4953845;28;20445;-69
2022/06/23 05:20:44;;;;;;;29.85;15.05;;;15.20;99.90;;;;;;4958890;28;20038;-71
2022/06/23 05:23:18;;;;;;;29.17;13.70;;;15.40;99.90;;;;;;4957319;28;20053;-69
2022/06/23 05:25:47;;;;;;;27.77;13.50;;;15.50;99.90;;;;;;4939232;28;20042;-70
2022/06/23 05:28:35;;;;;;;24.75;13.40;;;15.60;99.90;;;;;;4950254;28;20528;-70
2022/06/23 05:31:09;;;;;;;26.60;14.00;;;15.80;99.90;;;;;;4968219;28;20045;-71
2022/06/23 05:33:41;;;;;;;31.42;14.82;;;15.90;99.90;;;;;;4952544;28;20034;-70
2022/06/23 05:36:24;;;;;;;27.17;13.90;;;16.00;99.90;;;;;;4951278;28;20077;-71
2022/06/23 05:39:02;;;;;;;24.02;13.93;;;16.10;99.90;;;;;;4944727;28;20055;-70
2022/06/23 05:41:59;;;;;;;28.63;14.52;;;16.40;99.90;;;;;;4953455;28;20035;-68
2022/06/23 05:44:30;;;;;;;26.60;14.50;;;16.40;99.90;;;;;;4949295;28;20542;-69
2022/06/23 05:46:59;;;;;;;35.53;14.95;;;16.60;99.90;;;;;;4956369;28;20134;-71
2022/06/23 05:49:32;;;;;;;29.80;14.70;;;16.70;99.90;;;;;;4977449;28;20062;-70
2022/06/23 05:52:09;;;;;;;30.15;14.07;;;16.90;99.90;;;;;;4959368;28;20058;-70
2022/06/23 05:55:27;;;;;;;27.30;15.02;;;16.90;99.90;;;;;;4979309;28;20046;-70
2022/06/23 05:58:16;;;;;;;26.02;14.20;;;17.20;99.90;;;;;;4941422;28;20060;-70
2022/06/23 06:00:45;;;;;;;26.92;13.88;;;17.30;99.90;;;;;;4955640;28;20490;-70
2022/06/23 06:03:17;;;;;;;28.65;15.48;;;17.40;99.90;;;;;;4961340;28;20050;-70
2022/06/23 06:05:46;;;;;;;24.97;13.60;;;17.60;99.90;;;;;;4962213;28;20037;-70
2022/06/23 06:08:25;;;;;;;22.05;13.77;;;17.60;99.90;;;;;;4963752;28;20286;-71
2022/06/23 06:10:53;;;;;;;25.02;13.98;;;17.80;99.90;;;;;;4957357;28;20053;-71
2022/06/23 06:13:25;;;;;;;22.85;13.60;;;17.90;99.90;;;;;;4943751;28;20034;-71
2022/06/23 06:15:54;;;;;;;25.43;13.90;;;18.10;99.90;;;;;;4962081;28;20563;-70
2022/06/23 06:18:35;;;;;;;26.40;14.35;;;18.30;99.90;;;;;;4963391;28;20046;-70
2022/06/23 06:21:04;;;;;;;24.30;13.70;;;18.40;99.90;;;;;;4955997;28;20043;-70
2022/06/23 06:23:53;;;;;;;30.48;14.10;;;18.50;99.90;;;;;;4987424;28;20039;-70
2022/06/23 06:26:27;;;;;;;27.05;13.93;;;18.60;99.90;;;;;;4958775;28;20050;-70
2022/06/23 06:28:58;;;;;;;23.67;13.57;;;18.80;99.90;;;;;;4965029;28;20046;-70
2022/06/23 06:31:31;;;;;;;32.95;14.25;;;18.80;99.90;;;;;;4959079;28;20039;-69
2022/06/23 06:34:01;;;;;;;25.83;13.40;;;19.00;99.90;;;;;;4958021;28;20031;-70
2022/06/23 06:36:36;;;;;;;24.70;13.90;;;19.10;99.90;;;;;;4958694;28;20481;-70
2022/06/23 06:39:18;;;;;;;27.25;14.65;;;19.20;99.90;;;;;;4972589;28;20042;-70
2022/06/23 06:41:49;;;;;;;26.33;14.73;;;19.30;99.90;;;;;;4960208;28;20042;-70
2022/06/23 06:44:17;;;;;;;25.58;13.15;;;19.50;99.90;;;;;;4956738;28;20035;-71
2022/06/23 06:46:44;;;;;;;25.85;13.38;;;19.60;99.90;;;;;;4958926;28;20417;-70
2022/06/23 06:49:18;;;;;;;24.83;14.15;;;19.70;99.90;;;;;;4943480;28;20449;-70
2022/06/23 06:51:44;;;;;;;29.92;15.13;;;19.80;99.90;;;;;;4943378;28;20035;-69
2022/06/23 06:54:20;;;;;;;27.98;15.07;;;19.90;99.90;;;;;;4955735;28;20393;-70
2022/06/23 06:56:57;;;;;;;26.73;15.55;;;20.00;99.90;;;;;;4971429;28;20490;-70
2022/06/23 06:59:28;;;;;;;23.38;14.63;;;20.10;99.90;;;;;;4954629;28;20038;-69
2022/06/23 07:01:59;;;;;;;28.90;14.68;;;20.20;99.90;;;;;;4956368;28;20066;-70
2022/06/23 07:04:40;;;;;;;23.50;13.07;;;20.30;99.90;;;;;;4957480;28;20042;-70
2022/06/23 07:07:12;;;;;;;25.00;12.63;;;20.50;99.90;;;;;;4969846;28;20045;-70
2022/06/23 07:10:01;;;;;;;24.23;12.82;;;20.50;99.90;;;;;;4956488;28;20039;-70
2022/06/23 07:12:40;;;;;;;22.67;12.82;;;20.70;99.90;;;;;;4956538;28;20121;-70
2022/06/23 07:15:19;;;;;;;18.38;11.70;;;20.80;99.90;;;;;;4953639;28;20034;-70
2022/06/23 07:17:50;;;;;;;19.83;12.77;;;20.90;99.90;;;;;;4955115;28;20035;-70
2022/06/23 07:20:40;;;;;;;21.52;12.18;;;21.10;99.90;;;;;;4940303;28;20122;-69
2022/06/23 07:23:47;;;;;;;22.13;11.75;;;21.20;99.90;;;;;;4967437;28;20030;-70
2022/06/23 07:27:07;;;;;;;22.38;12.60;;;21.30;99.90;;;;;;4915854;29;20052;-70
2022/06/23 07:29:54;;;;;;;22.50;11.98;;;21.50;99.90;;;;;;4895942;29;20062;-70
2022/06/23 07:32:30;;;;;;;19.23;12.23;;;21.60;99.90;;;;;;4988109;28;20389;-70
2022/06/23 07:35:26;;;;;;;20.17;11.90;;;21.80;99.90;;;;;;4955891;28;20161;-69
2022/06/23 07:38:22;;;;;;;18.73;11.73;;;21.90;99.90;;;;;;4955787;28;20545;-70
2022/06/23 07:40:58;;;;;;;20.20;11.75;;;22.00;99.90;;;;;;4937680;28;20488;-69
2022/06/23 07:43:42;;;;;;;20.42;11.25;;;22.10;99.90;;;;;;4955525;28;20468;-70
2022/06/23 07:46:08;;;;;;;18.90;10.25;;;22.20;99.90;;;;;;4971362;28;20540;-70
2022/06/23 07:48:35;;;;;;;17.63;10.68;;;22.30;99.90;;;;;;4955812;28;20038;-68
2022/06/23 07:51:07;;;;;;;21.55;11.55;;;22.40;99.90;;;;;;4954875;28;20062;-70
2022/06/23 07:53:46;;;;;;;19.10;10.45;;;22.50;99.90;;;;;;4953681;28;20426;-69
2022/06/23 07:56:15;;;;;;;19.77;10.60;;;22.50;99.90;;;;;;4955078;28;20034;-70
2022/06/23 07:58:42;;;;;;;16.88;10.10;;;22.70;99.90;;;;;;4955460;28;20157;-70
2022/06/23 08:01:46;;;;;;;21.98;10.82;;;22.80;99.90;;;;;;4954892;28;20485;-70
2022/06/23 08:04:39;;;;;;;21.05;10.35;;;22.90;99.90;;;;;;4954115;28;20054;-70
2022/06/23 08:07:08;;;;;;;16.67;9.15;;;23.00;99.90;;;;;;4953150;28;20473;-70
2022/06/23 08:09:40;;;;;;;19.85;10.15;;;23.00;99.90;;;;;;4955300;28;20101;-70
2022/06/23 08:17:58;;;;;;;20.70;10.95;;;23.30;99.90;;;;;;4952874;28;20054;-70
2022/06/23 08:20:25;;;;;;;15.57;9.07;;;23.50;99.90;;;;;;4951323;28;20061;-68
2022/06/23 08:22:54;;;;;;;17.50;10.77;;;23.60;99.90;;;;;;4954644;28;20046;-70
2022/06/23 08:25:20;;;;;;;20.73;10.60;;;23.70;99.90;;;;;;4953990;28;20042;-70
2022/06/23 08:27:47;;;;;;;17.00;9.55;;;23.80;99.90;;;;;;4953821;28;20034;-69
2022/06/23 08:30:16;;;;;;;16.63;8.77;;;23.90;99.90;;;;;;4954343;28;20482;-69
2022/06/23 08:32:46;;;;;;;15.27;8.88;;;24.00;99.90;;;;;;4953200;28;20624;-70
2022/06/23 08:35:32;;;;;;;17.13;9.10;;;24.10;99.90;;;;;;4951552;28;20035;-70
2022/06/23 08:38:06;;;;;;;21.13;9.77;;;24.20;99.90;;;;;;4953514;28;20039;-67
2022/06/23 08:40:57;;;;;;;16.25;8.80;;;24.30;99.90;;;;;;4952998;28;20405;-70
2022/06/23 08:43:41;;;;;;;14.75;8.10;;;24.30;99.90;;;;;;4938147;28;20038;-70
2022/06/23 08:46:17;;;;;;;15.23;8.52;;;24.40;99.90;;;;;;4950646;28;20085;-70
2022/06/23 08:49:01;;;;;;;16.95;9.18;;;24.50;99.90;;;;;;4953657;28;20133;-68
2022/06/23 08:51:51;;;;;;;17.08;8.93;;;24.70;99.90;;;;;;4967404;28;20039;-70
2022/06/23 08:54:41;;;;;;;14.57;8.70;;;24.80;99.90;;;;;;4950068;28;20038;-71
2022/06/23 08:57:32;;;;;;;13.30;8.57;;;24.90;99.90;;;;;;4948569;28;20038;-69
2022/06/23 09:00:11;;;;;;;18.88;8.82;;;25.10;99.90;;;;;;4951553;28;20043;-68
2022/06/23 09:02:50;;;;;;;14.75;9.00;;;25.20;99.90;;;;;;4952879;28;20431;-70
2022/06/23 09:05:32;;;;;;;15.73;8.85;;;25.40;99.90;;;;;;4974298;28;20039;-69
2022/06/23 09:08:10;;;;;;;14.60;9.32;;;25.50;99.90;;;;;;4947821;28;20050;-69
2022/06/23 09:10:42;;;;;;;14.80;8.43;;;25.70;99.90;;;;;;4953598;28;20046;-71
2022/06/23 09:13:16;;;;;;;12.45;8.48;;;25.80;99.90;;;;;;4945403;28;20414;-71
2022/06/23 09:15:48;;;;;;;14.70;9.18;;;25.80;99.90;;;;;;4943845;28;20606;-69
2022/06/23 09:18:57;;;;;;;15.80;8.50;;;26.00;99.90;;;;;;4952243;28;20045;-70
2022/06/23 09:21:43;;;;;;;16.23;8.07;;;26.00;99.90;;;;;;4985392;28;20469;-69
2022/06/23 09:24:24;;;;;;;15.93;8.38;;;26.10;99.90;;;;;;4951525;28;20043;-68
2022/06/23 09:27:09;;;;;;;14.38;8.50;;;26.20;99.90;;;;;;4950880;28;20121;-69
2022/06/23 09:29:53;;;;;;;15.93;8.52;;;26.20;99.90;;;;;;4935320;28;20047;-68
2022/06/23 09:32:50;;;;;;;15.75;8.32;;;26.30;99.90;;;;;;4954502;28;20058;-69
2022/06/23 09:35:30;;;;;;;14.25;8.88;;;26.30;99.90;;;;;;4954108;28;20042;-70
2022/06/23 09:38:25;;;;;;;15.02;8.30;;;26.30;99.90;;;;;;4953007;28;20070;-68
2022/06/23 09:41:17;;;;;;;13.98;8.73;;;26.40;99.90;;;;;;4867855;29;20204;-67
2022/06/23 09:44:05;;;;;;;20.67;11.30;;;26.50;99.90;;;;;;4953225;28;20039;-70
2022/06/23 09:46:57;;;;;;;16.95;9.15;;;26.50;99.90;;;;;;4953899;28;20045;-70
2022/06/23 09:50:08;;;;;;;13.80;8.40;;;26.60;99.90;;;;;;4954155;28;20074;-71
2022/06/23 09:52:46;;;;;;;15.15;8.80;;;26.70;99.90;;;;;;4954310;28;20050;-71
2022/06/23 09:55:20;;;;;;;15.60;8.95;;;26.70;99.90;;;;;;4952385;28;20050;-70
2022/06/23 09:57:52;;;;;;;13.70;8.88;;;26.80;99.90;;;;;;4953896;28;20134;-66
2022/06/23 10:00:20;;;;;;;13.88;9.48;;;26.80;99.90;;;;;;4946667;29;20486;-69
2022/06/23 10:03:01;;;;;;;11.35;8.23;;;26.90;99.90;;;;;;4952291;29;20044;-69
2022/06/23 10:05:40;;;;;;;15.48;9.45;;;26.90;99.90;;;;;;4948736;28;20046;-69
2022/06/23 10:08:41;;;;;;;15.23;9.20;;;27.00;99.90;;;;;;4953349;28;20078;-67
2022/06/23 10:11:13;;;;;;;17.30;9.95;;;27.10;99.90;;;;;;4945928;28;20069;-70
2022/06/23 10:13:51;;;;;;;16.85;10.15;;;27.10;99.90;;;;;;4953993;28;20520;-68
2022/06/23 10:16:35;;;;;;;16.40;9.82;;;27.20;99.90;;;;;;4938774;29;20055;-69
2022/06/23 10:19:10;;;;;;;14.98;9.07;;;27.30;99.90;;;;;;4948991;28;20058;-69
2022/06/23 10:21:57;;;;;;;17.13;9.30;;;27.30;99.90;;;;;;4953998;28;20045;-69
2022/06/23 10:24:36;;;;;;;20.10;10.63;;;27.40;99.90;;;;;;4951847;28;20042;-68
2022/06/23 10:27:30;;;;;;;20.25;9.98;;;27.40;99.90;;;;;;4947579;29;20036;-69
2022/06/23 10:30:07;;;;;;;17.13;10.70;;;27.50;99.90;;;;;;4934903;29;20043;-70
2022/06/23 10:32:48;;;;;;;19.17;10.38;;;27.50;99.90;;;;;;4935099;29;20055;-70
2022/06/23 10:35:34;;;;;;;17.63;10.45;;;27.50;99.90;;;;;;4934329;29;20039;-70
2022/06/23 10:38:14;;;;;;;24.00;10.30;;;27.60;99.90;;;;;;4930329;29;20074;-71
2022/06/23 10:40:40;;;;;;;20.48;10.43;;;27.60;99.90;;;;;;4936717;29;20523;-69
2022/06/23 10:43:34;;;;;;;17.77;10.30;;;27.70;99.90;;;;;;4954580;29;20082;-70
2022/06/23 10:46:11;;;;;;;18.45;10.70;;;27.70;99.90;;;;;;4970038;28;20391;-69
2022/06/23 10:49:03;;;;;;;14.18;10.23;;;27.80;99.90;;;;;;4938050;29;20047;-69
2022/06/23 10:51:48;;;;;;;19.38;10.45;;;27.90;99.90;;;;;;4942273;29;20062;-67
2022/06/23 10:54:32;;;;;;;16.23;10.90;;;27.90;99.90;;;;;;4938112;29;20035;-70
2022/06/23 10:57:16;;;;;;;18.90;10.73;;;28.00;99.90;;;;;;4937544;29;20251;-69
2022/06/23 11:00:03;;;;;;;16.83;10.50;;;28.00;99.90;;;;;;4956717;28;20050;-70
2022/06/23 11:03:06;;;;;;;17.10;10.27;;;28.00;99.90;;;;;;4957252;28;20078;-69
2022/06/23 11:05:40;;;;;;;17.67;10.20;;;28.10;99.90;;;;;;4957524;28;20051;-70
2022/06/23 11:08:56;;;;;;;17.70;10.65;;;28.10;99.90;;;;;;4955419;28;20050;-70
2022/06/23 11:11:26;;;;;;;16.77;9.32;;;28.20;98.00;;;;;;4948293;28;20075;-70
2022/06/23 11:14:06;;;;;;;15.98;9.60;;;28.30;99.90;;;;;;4955261;28;20049;-70
2022/06/23 11:16:53;;;;;;;16.90;9.68;;;28.40;99.90;;;;;;4944214;29;20039;-68
2022/06/23 11:19:33;;;;;;;17.92;9.65;;;28.50;99.90;;;;;;4948342;28;20145;-71
2022/06/23 11:22:18;;;;;;;19.65;11.50;;;28.60;99.90;;;;;;4931000;28;20057;-71
2022/06/23 11:25:09;;;;;;;14.23;10.32;;;28.60;98.40;;;;;;4939888;28;20051;-71
2022/06/23 11:27:49;;;;;;;15.77;9.85;;;28.70;99.90;;;;;;4953978;29;20047;-70
2022/06/23 11:30:48;;;;;;;16.67;9.80;;;28.80;99.90;;;;;;4937343;28;20059;-70
2022/06/23 11:33:28;;;;;;;15.25;9.18;;;28.80;99.90;;;;;;4940975;28;20046;-71
2022/06/23 11:36:03;;;;;;;15.27;9.63;;;28.90;99.90;;;;;;4956952;28;20122;-71
2022/06/23 11:39:03;;;;;;;19.52;9.80;;;28.90;99.50;;;;;;4956253;28;20043;-68
2022/06/23 11:41:49;;;;;;;17.33;9.57;;;28.90;99.90;;;;;;4955473;28;20142;-68
2022/06/23 11:44:37;;;;;;;13.00;9.20;;;29.00;98.90;;;;;;4956964;28;20570;-67
2022/06/23 11:47:15;;;;;;;14.88;8.38;;;29.00;97.50;;;;;;4946736;28;20042;-69
2022/06/23 11:49:55;;;;;;;16.35;9.48;;;29.00;94.40;;;;;;4956566;28;20164;-70
2022/06/23 11:52:37;;;;;;;17.40;9.43;;;28.90;95.50;;;;;;4940181;28;20409;-71
2022/06/23 11:55:13;;;;;;;13.25;9.07;;;29.00;97.50;;;;;;4948356;29;20035;-70
2022/06/23 11:58:05;;;;;;;16.70;9.43;;;29.10;98.40;;;;;;4936735;29;20078;-66
2022/06/23 12:00:49;;;;;;;15.80;9.13;;;29.10;98.60;;;;;;4955984;28;20505;-70
2022/06/23 12:03:15;;;;;;;16.50;8.70;;;29.20;96.90;;;;;;4947595;28;20439;-70
2022/06/23 12:05:52;;;;;;;12.00;9.25;;;29.20;97.30;;;;;;4939836;28;20188;-72
2022/06/23 12:08:35;;;;;;;19.23;9.80;;;29.30;99.90;;;;;;4951312;28;20053;-70
2022/06/23 12:11:02;;;;;;;12.85;8.60;;;29.30;92.90;;;;;;4954785;28;20046;-70
2022/06/23 12:13:30;;;;;;;16.45;9.30;;;29.30;95.40;;;;;;4954933;28;20070;-68
2022/06/23 12:15:56;;;;;;;20.15;9.63;;;29.40;91.80;;;;;;4937013;28;20069;-71
2022/06/23 12:18:34;;;;;;;16.17;9.05;;;29.40;95.80;;;;;;4951262;28;20035;-69
2022/06/23 12:21:22;;;;;;;13.80;8.93;;;29.40;92.80;;;;;;4955559;28;20058;-71
2022/06/23 12:23:59;;;;;;;15.32;9.27;;;29.50;95.60;;;;;;4955270;28;20054;-70
2022/06/23 12:26:35;;;;;;;13.35;8.75;;;29.40;94.60;;;;;;4954283;28;20101;-69
2022/06/23 12:29:23;;;;;;;15.95;9.07;;;29.50;95.40;;;;;;4955808;28;20159;-71
2022/06/23 12:31:58;;;;;;;16.70;10.30;;;29.50;97.80;;;;;;4955970;28;20146;-71
2022/06/23 12:34:42;;;;;;;17.38;10.27;;;29.50;97.30;;;;;;4952851;28;20049;-71
2022/06/23 12:37:32;;;;;;;15.05;10.23;;;29.40;95.30;;;;;;4952007;29;20360;-70
2022/06/23 12:40:13;;;;;;;16.88;10.23;;;29.40;99.90;;;;;;4941359;28;20437;-71
2022/06/23 12:42:46;;;;;;;16.33;9.88;;;29.40;95.80;;;;;;4955099;28;20051;-71
2022/06/23 12:45:31;;;;;;;16.33;10.07;;;29.40;94.20;;;;;;4954683;28;20051;-71
2022/06/23 12:48:19;;;;;;;12.25;9.50;;;29.40;97.10;;;;;;4948539;29;20402;-71
2022/06/23 12:51:18;;;;;;;16.30;9.18;;;29.50;87.60;;;;;;4937112;28;20043;-71
2022/06/23 12:54:14;;;;;;;14.75;9.48;;;29.60;95.90;;;;;;4935780;29;20110;-71
2022/06/23 12:57:12;;;;;;;18.85;10.90;;;29.60;98.70;;;;;;4951249;29;20552;-71
2022/06/23 12:59:49;;;;;;;17.92;12.50;;;29.60;97.50;;;;;;4934864;29;20061;-71
2022/06/23 13:02:19;;;;;;;16.33;12.07;;;29.60;97.90;;;;;;4951364;28;20055;-69
2022/06/23 13:04:59;;;;;;;20.20;12.73;;;29.50;96.80;;;;;;4935950;29;20050;-71
2022/06/23 13:07:48;;;;;;;15.93;11.40;;;29.50;99.00;;;;;;4975876;28;20097;-69
2022/06/23 13:10:27;;;;;;;19.27;10.90;;;29.60;97.80;;;;;;4954589;28;20031;-70
2022/06/23 13:13:01;;;;;;;17.75;10.80;;;29.60;98.40;;;;;;4953257;28;20043;-71
2022/06/23 13:15:38;;;;;;;19.92;12.32;;;29.70;97.90;;;;;;4985190;28;20034;-70
2022/06/23 13:18:23;;;;;;;18.88;13.20;;;29.60;97.60;;;;;;4938529;28;20119;-70
2022/06/23 13:21:10;;;;;;;20.67;12.32;;;29.60;95.80;;;;;;4954215;28;20235;-70
2022/06/23 13:23:42;;;;;;;17.33;12.57;;;29.70;97.30;;;;;;4953622;28;20039;-69
2022/06/23 13:26:27;;;;;;;22.73;13.20;;;29.60;93.30;;;;;;4953928;28;20093;-68
2022/06/23 13:28:59;;;;;;;16.90;12.95;;;29.60;96.60;;;;;;4954313;28;20054;-70
2022/06/23 13:31:33;;;;;;;19.20;12.93;;;29.60;96.00;;;;;;4948002;29;20051;-69
2022/06/23 13:34:04;;;;;;;22.52;15.05;;;29.60;92.00;;;;;;4979032;28;20051;-69
2022/06/23 13:36:56;;;;;;;23.38;13.70;;;29.70;97.30;;;;;;4954065;28;20527;-70
2022/06/23 13:39:45;;;;;;;20.80;14.20;;;29.70;95.60;;;;;;4944683;29;20136;-70
2022/06/23 13:42:29;;;;;;;23.63;15.98;;;29.80;97.00;;;;;;4967470;28;20043;-70
2022/06/23 13:45:03;;;;;;;21.10;15.00;;;29.80;99.90;;;;;;4974978;28;20113;-69